sensor_id;sensor_type;location;lat;lon;timestamp;temperature;humidity
72814;DHT22;60945;48.516;-2.768;2023-06-04T00:01:58;13.70;77.60
72814;DHT22;60945;48.516;-2.768;2023-06-04T00:04:25;13.70;77.60
72814;DHT22;60945;48.516;-2.768;2023-06-04T00:06:51;13.60;77.80
72814;DHT22;60945;48.516;-2.768;2023-06-04T00:09:16;13.60;78.00
72814;DHT22;60945;48.516;-2.768;2023-06-04T00:11:42;13.60;77.80
72814;DHT22;60945;48.516;-2.768;2023-06-04T00:14:08;13.60;78.00
72814;DHT22;60945;48.516;-2.768;2023-06-04T00:16:33;13.60;78.00
72814;DHT22;60945;48.516;-2.768;2023-06-04T00:19:01;13.60;78.10
72814;DHT22;60945;48.516;-2.768;2023-06-04T00:21:27;13.50;78.10
72814;DHT22;60945;48.516;-2.768;2023-06-04T00:23:53;13.50;78.40
72814;DHT22;60945;48.516;-2.768;2023-06-04T00:26:18;13.60;78.40
72814;DHT22;60945;48.516;-2.768;2023-06-04T00:28:44;13.50;78.60
72814;DHT22;60945;48.516;-2.768;2023-06-04T00:31:10;13.50;78.80
72814;DHT22;60945;48.516;-2.768;2023-06-04T00:33:41;13.40;79.20
72814;DHT22;60945;48.516;-2.768;2023-06-04T00:36:07;13.40;79.20
72814;DHT22;60945;48.516;-2.768;2023-06-04T00:38:33;13.40;79.60
72814;DHT22;60945;48.516;-2.768;2023-06-04T00:40:58;13.40;79.60
72814;DHT22;60945;48.516;-2.768;2023-06-04T00:43:24;13.30;79.70
72814;DHT22;60945;48.516;-2.768;2023-06-04T00:45:52;13.40;80.00
72814;DHT22;60945;48.516;-2.768;2023-06-04T00:48:17;13.30;79.60
72814;DHT22;60945;48.516;-2.768;2023-06-04T00:50:44;13.30;79.70
72814;DHT22;60945;48.516;-2.768;2023-06-04T00:53:10;13.30;80.20
72814;DHT22;60945;48.516;-2.768;2023-06-04T00:55:36;13.30;80.30
72814;DHT22;60945;48.516;-2.768;2023-06-04T00:58:02;13.30;80.20
72814;DHT22;60945;48.516;-2.768;2023-06-04T01:00:30;13.30;80.20
72814;DHT22;60945;48.516;-2.768;2023-06-04T01:02:58;13.30;80.00
72814;DHT22;60945;48.516;-2.768;2023-06-04T01:05:51;13.30;80.20
72814;DHT22;60945;48.516;-2.768;2023-06-04T01:08:22;13.30;80.10
72814;DHT22;60945;48.516;-2.768;2023-06-04T01:10:52;13.30;80.40
72814;DHT22;60945;48.516;-2.768;2023-06-04T01:13:18;13.30;80.50
72814;DHT22;60945;48.516;-2.768;2023-06-04T01:15:43;13.30;80.50
72814;DHT22;60945;48.516;-2.768;2023-06-04T01:18:09;13.30;80.60
72814;DHT22;60945;48.516;-2.768;2023-06-04T01:20:42;13.20;80.60
72814;DHT22;60945;48.516;-2.768;2023-06-04T01:26:03;13.20;81.00
72814;DHT22;60945;48.516;-2.768;2023-06-04T01:28:30;13.20;80.90
72814;DHT22;60945;48.516;-2.768;2023-06-04T01:30:57;13.20;80.90
72814;DHT22;60945;48.516;-2.768;2023-06-04T01:33:25;13.10;81.10
72814;DHT22;60945;48.516;-2.768;2023-06-04T01:35:51;13.10;81.10
72814;DHT22;60945;48.516;-2.768;2023-06-04T01:38:17;13.10;81.20
72814;DHT22;60945;48.516;-2.768;2023-06-04T01:40:43;13.10;81.30
72814;DHT22;60945;48.516;-2.768;2023-06-04T01:43:09;13.10;81.20
72814;DHT22;60945;48.516;-2.768;2023-06-04T01:45:35;13.10;81.30
72814;DHT22;60945;48.516;-2.768;2023-06-04T01:48:02;13.00;81.70
72814;DHT22;60945;48.516;-2.768;2023-06-04T01:50:28;13.00;81.80
72814;DHT22;60945;48.516;-2.768;2023-06-04T01:52:54;12.90;82.20
72814;DHT22;60945;48.516;-2.768;2023-06-04T01:55:19;12.90;82.20
72814;DHT22;60945;48.516;-2.768;2023-06-04T01:57:46;12.90;82.00
72814;DHT22;60945;48.516;-2.768;2023-06-04T02:00:15;12.90;82.00
72814;DHT22;60945;48.516;-2.768;2023-06-04T02:02:43;12.90;82.10
72814;DHT22;60945;48.516;-2.768;2023-06-04T02:05:12;12.90;82.20
72814;DHT22;60945;48.516;-2.768;2023-06-04T02:07:41;12.90;82.50
72814;DHT22;60945;48.516;-2.768;2023-06-04T02:10:08;12.90;82.50
72814;DHT22;60945;48.516;-2.768;2023-06-04T02:12:36;12.90;82.60
72814;DHT22;60945;48.516;-2.768;2023-06-04T02:15:02;12.90;82.40
72814;DHT22;60945;48.516;-2.768;2023-06-04T02:17:28;12.90;82.60
72814;DHT22;60945;48.516;-2.768;2023-06-04T02:19:58;12.80;82.80
72814;DHT22;60945;48.516;-2.768;2023-06-04T02:22:24;12.80;83.00
72814;DHT22;60945;48.516;-2.768;2023-06-04T02:24:50;12.80;82.90
72814;DHT22;60945;48.516;-2.768;2023-06-04T02:27:16;12.80;83.50
72814;DHT22;60945;48.516;-2.768;2023-06-04T02:29:42;12.80;83.30
72814;DHT22;60945;48.516;-2.768;2023-06-04T02:32:08;12.80;83.40
72814;DHT22;60945;48.516;-2.768;2023-06-04T02:34:34;12.80;83.60
72814;DHT22;60945;48.516;-2.768;2023-06-04T02:37:00;12.70;83.70
72814;DHT22;60945;48.516;-2.768;2023-06-04T02:39:26;12.70;84.00
72814;DHT22;60945;48.516;-2.768;2023-06-04T02:41:52;12.70;84.30
72814;DHT22;60945;48.516;-2.768;2023-06-04T02:44:18;12.60;84.50
72814;DHT22;60945;48.516;-2.768;2023-06-04T02:46:43;12.60;85.00
72814;DHT22;60945;48.516;-2.768;2023-06-04T02:49:10;12.50;85.20
72814;DHT22;60945;48.516;-2.768;2023-06-04T02:51:39;12.50;85.50
72814;DHT22;60945;48.516;-2.768;2023-06-04T02:54:05;12.50;85.30
72814;DHT22;60945;48.516;-2.768;2023-06-04T02:56:30;12.50;85.40
72814;DHT22;60945;48.516;-2.768;2023-06-04T02:58:56;12.50;85.70
72814;DHT22;60945;48.516;-2.768;2023-06-04T03:01:23;12.40;85.90
72814;DHT22;60945;48.516;-2.768;2023-06-04T03:03:50;12.40;86.10
72814;DHT22;60945;48.516;-2.768;2023-06-04T03:06:17;12.40;86.40
72814;DHT22;60945;48.516;-2.768;2023-06-04T03:08:43;12.30;86.30
72814;DHT22;60945;48.516;-2.768;2023-06-04T03:11:09;12.30;86.60
72814;DHT22;60945;48.516;-2.768;2023-06-04T03:13:35;12.30;86.70
72814;DHT22;60945;48.516;-2.768;2023-06-04T03:16:01;12.30;86.60
72814;DHT22;60945;48.516;-2.768;2023-06-04T03:18:28;12.30;86.80
72814;DHT22;60945;48.516;-2.768;2023-06-04T03:20:54;12.30;87.00
72814;DHT22;60945;48.516;-2.768;2023-06-04T03:23:20;12.30;87.30
72814;DHT22;60945;48.516;-2.768;2023-06-04T03:25:46;12.20;87.40
72814;DHT22;60945;48.516;-2.768;2023-06-04T03:28:13;12.10;87.60
72814;DHT22;60945;48.516;-2.768;2023-06-04T03:30:40;12.20;87.70
72814;DHT22;60945;48.516;-2.768;2023-06-04T03:33:06;12.10;88.00
72814;DHT22;60945;48.516;-2.768;2023-06-04T03:35:31;12.10;88.10
72814;DHT22;60945;48.516;-2.768;2023-06-04T03:37:57;12.10;88.30
72814;DHT22;60945;48.516;-2.768;2023-06-04T03:40:23;12.10;88.50
72814;DHT22;60945;48.516;-2.768;2023-06-04T03:42:51;12.00;88.80
72814;DHT22;60945;48.516;-2.768;2023-06-04T03:45:17;12.00;88.90
72814;DHT22;60945;48.516;-2.768;2023-06-04T03:47:42;12.00;89.10
72814;DHT22;60945;48.516;-2.768;2023-06-04T03:50:09;12.00;89.30
72814;DHT22;60945;48.516;-2.768;2023-06-04T03:52:35;11.90;89.50
72814;DHT22;60945;48.516;-2.768;2023-06-04T03:55:01;11.90;89.70
72814;DHT22;60945;48.516;-2.768;2023-06-04T03:57:27;11.90;89.70
72814;DHT22;60945;48.516;-2.768;2023-06-04T03:59:52;11.90;89.80
72814;DHT22;60945;48.516;-2.768;2023-06-04T04:02:18;11.90;89.90
72814;DHT22;60945;48.516;-2.768;2023-06-04T04:04:44;11.90;89.90
72814;DHT22;60945;48.516;-2.768;2023-06-04T04:07:12;11.90;90.10
72814;DHT22;60945;48.516;-2.768;2023-06-04T04:09:38;11.90;90.40
72814;DHT22;60945;48.516;-2.768;2023-06-04T04:12:04;11.90;90.40
72814;DHT22;60945;48.516;-2.768;2023-06-04T04:14:30;11.80;90.50
72814;DHT22;60945;48.516;-2.768;2023-06-04T04:16:55;11.80;90.60
72814;DHT22;60945;48.516;-2.768;2023-06-04T04:19:24;11.90;90.80
72814;DHT22;60945;48.516;-2.768;2023-06-04T04:21:50;11.90;90.80
72814;DHT22;60945;48.516;-2.768;2023-06-04T04:26:48;11.90;90.70
72814;DHT22;60945;48.516;-2.768;2023-06-04T04:29:18;12.00;90.70
72814;DHT22;60945;48.516;-2.768;2023-06-04T04:31:51;11.90;90.30
72814;DHT22;60945;48.516;-2.768;2023-06-04T04:34:17;12.00;90.20
72814;DHT22;60945;48.516;-2.768;2023-06-04T04:36:45;12.00;90.20
72814;DHT22;60945;48.516;-2.768;2023-06-04T04:39:27;12.00;89.90
72814;DHT22;60945;48.516;-2.768;2023-06-04T04:41:55;12.10;89.80
72814;DHT22;60945;48.516;-2.768;2023-06-04T04:44:21;12.20;89.50
72814;DHT22;60945;48.516;-2.768;2023-06-04T04:46:50;12.30;89.50
72814;DHT22;60945;48.516;-2.768;2023-06-04T04:49:15;12.30;89.20
72814;DHT22;60945;48.516;-2.768;2023-06-04T04:51:41;12.40;88.80
72814;DHT22;60945;48.516;-2.768;2023-06-04T04:54:07;12.40;88.60
72814;DHT22;60945;48.516;-2.768;2023-06-04T04:56:33;12.50;88.80
72814;DHT22;60945;48.516;-2.768;2023-06-04T04:59:01;12.60;88.60
72814;DHT22;60945;48.516;-2.768;2023-06-04T05:01:27;12.60;88.50
72814;DHT22;60945;48.516;-2.768;2023-06-04T05:03:56;12.70;88.60
72814;DHT22;60945;48.516;-2.768;2023-06-04T05:06:21;12.70;88.50
72814;DHT22;60945;48.516;-2.768;2023-06-04T05:08:48;12.80;88.50
72814;DHT22;60945;48.516;-2.768;2023-06-04T05:11:14;12.80;88.20
72814;DHT22;60945;48.516;-2.768;2023-06-04T05:13:39;12.90;88.10
72814;DHT22;60945;48.516;-2.768;2023-06-04T05:16:07;12.90;87.90
72814;DHT22;60945;48.516;-2.768;2023-06-04T05:18:33;12.90;87.80
72814;DHT22;60945;48.516;-2.768;2023-06-04T05:20:59;13.00;87.80
72814;DHT22;60945;48.516;-2.768;2023-06-04T05:23:28;13.10;87.50
72814;DHT22;60945;48.516;-2.768;2023-06-04T05:25:54;13.10;87.30
72814;DHT22;60945;48.516;-2.768;2023-06-04T05:28:20;13.20;87.00
72814;DHT22;60945;48.516;-2.768;2023-06-04T05:30:51;13.20;86.70
72814;DHT22;60945;48.516;-2.768;2023-06-04T05:33:17;13.30;86.10
72814;DHT22;60945;48.516;-2.768;2023-06-04T05:35:46;13.40;85.80
72814;DHT22;60945;48.516;-2.768;2023-06-04T05:38:13;13.40;85.40
72814;DHT22;60945;48.516;-2.768;2023-06-04T05:40:44;13.50;85.10
72814;DHT22;60945;48.516;-2.768;2023-06-04T05:43:11;13.50;84.80
72814;DHT22;60945;48.516;-2.768;2023-06-04T05:45:36;13.50;84.40
72814;DHT22;60945;48.516;-2.768;2023-06-04T05:48:03;13.60;83.90
72814;DHT22;60945;48.516;-2.768;2023-06-04T05:50:29;13.60;83.60
72814;DHT22;60945;48.516;-2.768;2023-06-04T05:52:55;13.70;83.20
72814;DHT22;60945;48.516;-2.768;2023-06-04T05:55:22;13.70;83.10
72814;DHT22;60945;48.516;-2.768;2023-06-04T05:57:48;13.70;82.70
72814;DHT22;60945;48.516;-2.768;2023-06-04T06:00:14;13.80;82.60
72814;DHT22;60945;48.516;-2.768;2023-06-04T06:02:40;13.90;82.30
72814;DHT22;60945;48.516;-2.768;2023-06-04T06:05:06;13.90;81.90
72814;DHT22;60945;48.516;-2.768;2023-06-04T06:07:34;14.00;81.70
72814;DHT22;60945;48.516;-2.768;2023-06-04T06:09:59;14.00;81.20
72814;DHT22;60945;48.516;-2.768;2023-06-04T06:12:26;14.10;81.30
72814;DHT22;60945;48.516;-2.768;2023-06-04T06:14:51;14.20;80.90
72814;DHT22;60945;48.516;-2.768;2023-06-04T06:17:17;14.30;80.90
72814;DHT22;60945;48.516;-2.768;2023-06-04T06:19:42;14.30;80.50
72814;DHT22;60945;48.516;-2.768;2023-06-04T06:22:08;14.40;80.10
72814;DHT22;60945;48.516;-2.768;2023-06-04T06:24:34;14.40;79.30
72814;DHT22;60945;48.516;-2.768;2023-06-04T06:26:59;14.50;79.60
72814;DHT22;60945;48.516;-2.768;2023-06-04T06:29:25;14.50;79.70
72814;DHT22;60945;48.516;-2.768;2023-06-04T06:31:53;14.60;79.70
72814;DHT22;60945;48.516;-2.768;2023-06-04T06:34:19;14.60;79.70
72814;DHT22;60945;48.516;-2.768;2023-06-04T06:36:44;14.70;79.60
72814;DHT22;60945;48.516;-2.768;2023-06-04T06:39:10;14.70;79.50
72814;DHT22;60945;48.516;-2.768;2023-06-04T06:41:37;14.70;79.50
72814;DHT22;60945;48.516;-2.768;2023-06-04T06:44:05;14.80;79.30
72814;DHT22;60945;48.516;-2.768;2023-06-04T06:46:31;14.80;79.40
72814;DHT22;60945;48.516;-2.768;2023-06-04T06:48:57;14.80;79.80
72814;DHT22;60945;48.516;-2.768;2023-06-04T06:51:23;14.90;79.30
72814;DHT22;60945;48.516;-2.768;2023-06-04T06:53:51;15.00;78.60
72814;DHT22;60945;48.516;-2.768;2023-06-04T06:56:17;15.00;78.10
72814;DHT22;60945;48.516;-2.768;2023-06-04T06:58:44;15.10;78.40
72814;DHT22;60945;48.516;-2.768;2023-06-04T07:01:10;15.10;77.80
72814;DHT22;60945;48.516;-2.768;2023-06-04T07:03:36;15.10;77.80
72814;DHT22;60945;48.516;-2.768;2023-06-04T07:06:02;15.20;77.60
72814;DHT22;60945;48.516;-2.768;2023-06-04T07:08:30;15.30;77.60
72814;DHT22;60945;48.516;-2.768;2023-06-04T07:10:56;15.30;78.00
72814;DHT22;60945;48.516;-2.768;2023-06-04T07:13:22;15.40;77.20
72814;DHT22;60945;48.516;-2.768;2023-06-04T07:15:48;15.40;76.50
72814;DHT22;60945;48.516;-2.768;2023-06-04T07:18:13;15.40;76.60
72814;DHT22;60945;48.516;-2.768;2023-06-04T07:20:39;15.40;77.00
72814;DHT22;60945;48.516;-2.768;2023-06-04T07:23:04;15.50;76.10
72814;DHT22;60945;48.516;-2.768;2023-06-04T07:25:32;15.50;76.10
72814;DHT22;60945;48.516;-2.768;2023-06-04T07:27:58;15.60;76.50
72814;DHT22;60945;48.516;-2.768;2023-06-04T07:30:24;15.70;75.90
72814;DHT22;60945;48.516;-2.768;2023-06-04T07:32:50;15.70;75.70
72814;DHT22;60945;48.516;-2.768;2023-06-04T07:35:16;15.70;75.30
72814;DHT22;60945;48.516;-2.768;2023-06-04T07:37:42;15.80;75.60
72814;DHT22;60945;48.516;-2.768;2023-06-04T07:40:11;15.90;75.20
72814;DHT22;60945;48.516;-2.768;2023-06-04T07:42:37;15.90;75.40
72814;DHT22;60945;48.516;-2.768;2023-06-04T07:45:03;16.00;75.50
72814;DHT22;60945;48.516;-2.768;2023-06-04T07:47:29;16.00;75.60
72814;DHT22;60945;48.516;-2.768;2023-06-04T07:49:55;16.00;74.60
72814;DHT22;60945;48.516;-2.768;2023-06-04T07:52:20;16.10;74.70
72814;DHT22;60945;48.516;-2.768;2023-06-04T07:54:46;16.20;74.30
72814;DHT22;60945;48.516;-2.768;2023-06-04T07:57:12;16.20;74.00
72814;DHT22;60945;48.516;-2.768;2023-06-04T07:59:37;16.30;73.60
72814;DHT22;60945;48.516;-2.768;2023-06-04T08:02:03;16.40;73.40
72814;DHT22;60945;48.516;-2.768;2023-06-04T08:04:29;16.50;72.40
72814;DHT22;60945;48.516;-2.768;2023-06-04T08:06:55;16.60;72.00
72814;DHT22;60945;48.516;-2.768;2023-06-04T08:09:21;16.70;72.10
72814;DHT22;60945;48.516;-2.768;2023-06-04T08:11:47;16.80;71.50
72814;DHT22;60945;48.516;-2.768;2023-06-04T08:14:13;16.90;70.80
72814;DHT22;60945;48.516;-2.768;2023-06-04T08:16:39;17.10;70.30
72814;DHT22;60945;48.516;-2.768;2023-06-04T08:19:06;17.20;70.30
72814;DHT22;60945;48.516;-2.768;2023-06-04T08:21:33;17.40;69.00
72814;DHT22;60945;48.516;-2.768;2023-06-04T08:23:59;17.50;68.20
72814;DHT22;60945;48.516;-2.768;2023-06-04T08:26:25;17.70;68.10
72814;DHT22;60945;48.516;-2.768;2023-06-04T08:28:52;17.70;67.40
72814;DHT22;60945;48.516;-2.768;2023-06-04T08:31:18;17.80;67.70
72814;DHT22;60945;48.516;-2.768;2023-06-04T08:33:47;17.70;67.90
72814;DHT22;60945;48.516;-2.768;2023-06-04T08:36:13;17.90;66.80
72814;DHT22;60945;48.516;-2.768;2023-06-04T08:38:39;17.80;66.20
72814;DHT22;60945;48.516;-2.768;2023-06-04T08:41:13;18.00;66.40
72814;DHT22;60945;48.516;-2.768;2023-06-04T08:43:43;18.00;66.40
72814;DHT22;60945;48.516;-2.768;2023-06-04T08:46:09;18.30;66.20
72814;DHT22;60945;48.516;-2.768;2023-06-04T08:48:37;18.70;64.10
72814;DHT22;60945;48.516;-2.768;2023-06-04T08:51:05;18.80;63.80
72814;DHT22;60945;48.516;-2.768;2023-06-04T08:53:32;18.80;63.60
72814;DHT22;60945;48.516;-2.768;2023-06-04T08:55:59;18.60;65.10
72814;DHT22;60945;48.516;-2.768;2023-06-04T08:58:25;18.50;65.10
72814;DHT22;60945;48.516;-2.768;2023-06-04T09:00:51;18.60;64.90
72814;DHT22;60945;48.516;-2.768;2023-06-04T09:03:17;19.10;63.40
72814;DHT22;60945;48.516;-2.768;2023-06-04T09:05:47;19.40;62.60
72814;DHT22;60945;48.516;-2.768;2023-06-04T09:08:17;19.10;62.90
72814;DHT22;60945;48.516;-2.768;2023-06-04T09:10:44;19.30;62.40
72814;DHT22;60945;48.516;-2.768;2023-06-04T09:13:15;19.30;61.80
72814;DHT22;60945;48.516;-2.768;2023-06-04T09:15:42;19.40;62.10
72814;DHT22;60945;48.516;-2.768;2023-06-04T09:18:08;19.30;62.10
72814;DHT22;60945;48.516;-2.768;2023-06-04T09:20:33;19.50;61.70
72814;DHT22;60945;48.516;-2.768;2023-06-04T09:22:59;19.60;61.70
72814;DHT22;60945;48.516;-2.768;2023-06-04T09:25:28;19.80;61.40
72814;DHT22;60945;48.516;-2.768;2023-06-04T09:27:56;19.80;60.50
72814;DHT22;60945;48.516;-2.768;2023-06-04T09:30:22;19.90;60.60
72814;DHT22;60945;48.516;-2.768;2023-06-04T09:32:48;19.90;59.80
72814;DHT22;60945;48.516;-2.768;2023-06-04T09:35:18;20.00;59.50
72814;DHT22;60945;48.516;-2.768;2023-06-04T09:37:54;20.40;58.50
72814;DHT22;60945;48.516;-2.768;2023-06-04T09:40:21;20.10;59.30
72814;DHT22;60945;48.516;-2.768;2023-06-04T09:42:49;20.70;58.50
72814;DHT22;60945;48.516;-2.768;2023-06-04T09:45:30;20.30;58.60
72814;DHT22;60945;48.516;-2.768;2023-06-04T09:47:56;19.90;59.90
72814;DHT22;60945;48.516;-2.768;2023-06-04T09:50:31;20.70;57.80
72814;DHT22;60945;48.516;-2.768;2023-06-04T09:53:13;20.90;57.30
72814;DHT22;60945;48.516;-2.768;2023-06-04T09:55:39;21.00;56.00
72814;DHT22;60945;48.516;-2.768;2023-06-04T09:58:05;21.20;55.30
72814;DHT22;60945;48.516;-2.768;2023-06-04T10:00:31;21.00;56.30
72814;DHT22;60945;48.516;-2.768;2023-06-04T10:03:01;21.60;54.90
72814;DHT22;60945;48.516;-2.768;2023-06-04T10:05:30;21.70;55.00
72814;DHT22;60945;48.516;-2.768;2023-06-04T10:07:57;21.90;54.00
72814;DHT22;60945;48.516;-2.768;2023-06-04T10:10:27;22.00;54.10
72814;DHT22;60945;48.516;-2.768;2023-06-04T10:13:02;22.60;52.10
72814;DHT22;60945;48.516;-2.768;2023-06-04T10:15:31;22.90;52.20
72814;DHT22;60945;48.516;-2.768;2023-06-04T10:17:59;23.20;50.60
72814;DHT22;60945;48.516;-2.768;2023-06-04T10:20:27;23.20;51.00
72814;DHT22;60945;48.516;-2.768;2023-06-04T10:22:53;23.80;49.50
72814;DHT22;60945;48.516;-2.768;2023-06-04T10:25:20;25.20;46.60
72814;DHT22;60945;48.516;-2.768;2023-06-04T10:27:46;27.90;41.90
72814;DHT22;60945;48.516;-2.768;2023-06-04T10:30:12;28.90;39.50
72814;DHT22;60945;48.516;-2.768;2023-06-04T10:32:38;30.10;37.20
72814;DHT22;60945;48.516;-2.768;2023-06-04T10:35:05;30.40;36.90
72814;DHT22;60945;48.516;-2.768;2023-06-04T10:37:33;31.60;34.90
72814;DHT22;60945;48.516;-2.768;2023-06-04T10:39:59;32.30;33.50
72814;DHT22;60945;48.516;-2.768;2023-06-04T10:42:25;33.30;32.80
72814;DHT22;60945;48.516;-2.768;2023-06-04T10:44:52;35.10;30.20
72814;DHT22;60945;48.516;-2.768;2023-06-04T10:47:23;34.70;30.70
72814;DHT22;60945;48.516;-2.768;2023-06-04T10:49:49;36.00;28.80
72814;DHT22;60945;48.516;-2.768;2023-06-04T10:52:15;34.00;30.60
72814;DHT22;60945;48.516;-2.768;2023-06-04T10:54:42;35.50;29.60
72814;DHT22;60945;48.516;-2.768;2023-06-04T10:57:12;35.10;29.80
72814;DHT22;60945;48.516;-2.768;2023-06-04T10:59:38;35.00;29.90
72814;DHT22;60945;48.516;-2.768;2023-06-04T11:02:08;37.00;27.80
72814;DHT22;60945;48.516;-2.768;2023-06-04T11:04:35;36.50;27.80
72814;DHT22;60945;48.516;-2.768;2023-06-04T11:07:06;34.60;29.50
72814;DHT22;60945;48.516;-2.768;2023-06-04T11:09:50;35.60;29.00
72814;DHT22;60945;48.516;-2.768;2023-06-04T11:12:16;35.90;28.20
72814;DHT22;60945;48.516;-2.768;2023-06-04T11:14:54;36.10;27.90
72814;DHT22;60945;48.516;-2.768;2023-06-04T11:17:19;36.70;28.30
72814;DHT22;60945;48.516;-2.768;2023-06-04T11:19:45;36.60;27.90
72814;DHT22;60945;48.516;-2.768;2023-06-04T11:22:11;38.70;25.60
72814;DHT22;60945;48.516;-2.768;2023-06-04T11:24:40;39.40;25.10
72814;DHT22;60945;48.516;-2.768;2023-06-04T11:27:05;40.20;24.50
72814;DHT22;60945;48.516;-2.768;2023-06-04T11:29:32;40.40;24.30
72814;DHT22;60945;48.516;-2.768;2023-06-04T11:31:58;39.60;25.10
72814;DHT22;60945;48.516;-2.768;2023-06-04T11:34:25;41.90;23.30
72814;DHT22;60945;48.516;-2.768;2023-06-04T11:36:51;41.10;23.40
72814;DHT22;60945;48.516;-2.768;2023-06-04T11:39:18;40.90;23.60
72814;DHT22;60945;48.516;-2.768;2023-06-04T11:41:45;39.70;24.70
72814;DHT22;60945;48.516;-2.768;2023-06-04T11:44:11;40.10;24.20
72814;DHT22;60945;48.516;-2.768;2023-06-04T11:46:43;40.30;24.40
72814;DHT22;60945;48.516;-2.768;2023-06-04T11:49:13;40.90;23.60
72814;DHT22;60945;48.516;-2.768;2023-06-04T11:51:46;39.60;24.90
72814;DHT22;60945;48.516;-2.768;2023-06-04T11:54:13;39.20;24.90
72814;DHT22;60945;48.516;-2.768;2023-06-04T11:56:39;40.50;24.20
72814;DHT22;60945;48.516;-2.768;2023-06-04T11:59:04;40.80;23.90
72814;DHT22;60945;48.516;-2.768;2023-06-04T12:01:32;39.10;25.20
72814;DHT22;60945;48.516;-2.768;2023-06-04T12:03:57;39.70;24.80
72814;DHT22;60945;48.516;-2.768;2023-06-04T12:06:23;41.60;23.20
72814;DHT22;60945;48.516;-2.768;2023-06-04T12:08:53;41.30;23.30
72814;DHT22;60945;48.516;-2.768;2023-06-04T12:11:32;41.30;23.70
72814;DHT22;60945;48.516;-2.768;2023-06-04T12:14:04;41.00;23.60
72814;DHT22;60945;48.516;-2.768;2023-06-04T12:16:30;42.00;23.00
72814;DHT22;60945;48.516;-2.768;2023-06-04T12:19:06;43.60;21.70
72814;DHT22;60945;48.516;-2.768;2023-06-04T12:21:32;42.30;22.80
72814;DHT22;60945;48.516;-2.768;2023-06-04T12:24:14;43.30;21.90
72814;DHT22;60945;48.516;-2.768;2023-06-04T12:26:41;43.70;21.60
72814;DHT22;60945;48.516;-2.768;2023-06-04T12:29:12;41.90;22.90
72814;DHT22;60945;48.516;-2.768;2023-06-04T12:31:40;42.30;22.90
72814;DHT22;60945;48.516;-2.768;2023-06-04T12:34:06;42.50;22.40
72814;DHT22;60945;48.516;-2.768;2023-06-04T12:36:32;43.90;22.00
72814;DHT22;60945;48.516;-2.768;2023-06-04T12:39:00;42.80;22.00
72814;DHT22;60945;48.516;-2.768;2023-06-04T12:41:27;42.90;21.90
72814;DHT22;60945;48.516;-2.768;2023-06-04T12:43:53;43.20;22.10
72814;DHT22;60945;48.516;-2.768;2023-06-04T12:46:19;42.30;22.60
72814;DHT22;60945;48.516;-2.768;2023-06-04T12:48:45;41.20;23.30
72814;DHT22;60945;48.516;-2.768;2023-06-04T12:51:11;41.40;23.40
72814;DHT22;60945;48.516;-2.768;2023-06-04T12:53:43;41.90;23.40
72814;DHT22;60945;48.516;-2.768;2023-06-04T12:56:12;42.90;22.50
72814;DHT22;60945;48.516;-2.768;2023-06-04T12:58:41;45.30;20.80
72814;DHT22;60945;48.516;-2.768;2023-06-04T13:01:06;45.90;20.30
72814;DHT22;60945;48.516;-2.768;2023-06-04T13:03:33;45.10;20.80
72814;DHT22;60945;48.516;-2.768;2023-06-04T13:05:59;45.50;20.40
72814;DHT22;60945;48.516;-2.768;2023-06-04T13:08:27;43.80;21.40
72814;DHT22;60945;48.516;-2.768;2023-06-04T13:10:53;42.40;22.40
72814;DHT22;60945;48.516;-2.768;2023-06-04T13:13:19;42.50;22.80
72814;DHT22;60945;48.516;-2.768;2023-06-04T13:15:45;43.20;22.20
72814;DHT22;60945;48.516;-2.768;2023-06-04T13:18:11;44.10;21.20
72814;DHT22;60945;48.516;-2.768;2023-06-04T13:20:39;44.20;21.10
72814;DHT22;60945;48.516;-2.768;2023-06-04T13:23:05;45.40;20.60
72814;DHT22;60945;48.516;-2.768;2023-06-04T13:25:31;45.90;20.10
72814;DHT22;60945;48.516;-2.768;2023-06-04T13:28:05;44.80;20.90
72814;DHT22;60945;48.516;-2.768;2023-06-04T13:30:31;43.80;21.40
72814;DHT22;60945;48.516;-2.768;2023-06-04T13:32:57;44.50;21.10
72814;DHT22;60945;48.516;-2.768;2023-06-04T13:35:25;45.30;20.80
72814;DHT22;60945;48.516;-2.768;2023-06-04T13:37:51;45.20;20.80
72814;DHT22;60945;48.516;-2.768;2023-06-04T13:40:19;46.80;19.90
72814;DHT22;60945;48.516;-2.768;2023-06-04T13:42:45;46.80;19.60
72814;DHT22;60945;48.516;-2.768;2023-06-04T13:45:11;46.50;19.90
72814;DHT22;60945;48.516;-2.768;2023-06-04T13:47:37;45.40;20.70
72814;DHT22;60945;48.516;-2.768;2023-06-04T13:50:03;45.60;20.40
72814;DHT22;60945;48.516;-2.768;2023-06-04T13:52:29;45.20;20.60
72814;DHT22;60945;48.516;-2.768;2023-06-04T13:54:55;42.10;22.80
72814;DHT22;60945;48.516;-2.768;2023-06-04T13:57:21;44.80;21.10
72814;DHT22;60945;48.516;-2.768;2023-06-04T13:59:48;45.90;20.30
72814;DHT22;60945;48.516;-2.768;2023-06-04T14:02:14;44.10;21.20
72814;DHT22;60945;48.516;-2.768;2023-06-04T14:04:40;44.00;21.60
72814;DHT22;60945;48.516;-2.768;2023-06-04T14:07:06;42.70;22.20
72814;DHT22;60945;48.516;-2.768;2023-06-04T14:09:31;43.40;21.90
72814;DHT22;60945;48.516;-2.768;2023-06-04T14:12:00;42.90;22.60
72814;DHT22;60945;48.516;-2.768;2023-06-04T14:14:26;41.90;22.80
72814;DHT22;60945;48.516;-2.768;2023-06-04T14:16:52;40.60;24.00
72814;DHT22;60945;48.516;-2.768;2023-06-04T14:19:23;42.20;22.90
72814;DHT22;60945;48.516;-2.768;2023-06-04T14:21:48;42.10;23.30
72814;DHT22;60945;48.516;-2.768;2023-06-04T14:24:14;41.70;23.10
72814;DHT22;60945;48.516;-2.768;2023-06-04T14:26:40;41.50;23.70
72814;DHT22;60945;48.516;-2.768;2023-06-04T14:29:05;43.60;21.80
72814;DHT22;60945;48.516;-2.768;2023-06-04T14:31:31;42.10;22.60
72814;DHT22;60945;48.516;-2.768;2023-06-04T14:33:56;41.90;23.10
72814;DHT22;60945;48.516;-2.768;2023-06-04T14:36:22;41.90;22.80
72814;DHT22;60945;48.516;-2.768;2023-06-04T14:38:48;40.80;23.50
72814;DHT22;60945;48.516;-2.768;2023-06-04T14:41:14;41.20;23.30
72814;DHT22;60945;48.516;-2.768;2023-06-04T14:43:40;42.10;23.10
72814;DHT22;60945;48.516;-2.768;2023-06-04T14:46:05;41.70;23.10
72814;DHT22;60945;48.516;-2.768;2023-06-04T14:48:31;40.10;24.30
72814;DHT22;60945;48.516;-2.768;2023-06-04T14:50:57;38.80;25.40
72814;DHT22;60945;48.516;-2.768;2023-06-04T14:53:23;39.80;24.80
72814;DHT22;60945;48.516;-2.768;2023-06-04T14:55:49;38.50;25.50
72814;DHT22;60945;48.516;-2.768;2023-06-04T14:58:15;36.50;27.20
72814;DHT22;60945;48.516;-2.768;2023-06-04T15:00:44;37.00;26.70
72814;DHT22;60945;48.516;-2.768;2023-06-04T15:03:10;37.40;26.40
72814;DHT22;60945;48.516;-2.768;2023-06-04T15:05:36;36.40;27.20
72814;DHT22;60945;48.516;-2.768;2023-06-04T15:08:02;37.00;26.80
72814;DHT22;60945;48.516;-2.768;2023-06-04T15:10:28;36.90;26.60
72814;DHT22;60945;48.516;-2.768;2023-06-04T15:12:54;36.10;27.20
72814;DHT22;60945;48.516;-2.768;2023-06-04T15:15:20;36.10;27.60
72814;DHT22;60945;48.516;-2.768;2023-06-04T15:17:45;36.20;27.40
72814;DHT22;60945;48.516;-2.768;2023-06-04T15:20:11;34.90;28.60